tititudorancea.com
Station Historical Data
 
Daily Summary for August 28, 2016 Units:  Metric    English   Both
« Previous Day
Next Day »
Daily Weekly Monthly Yearly Custom
  Current: High: Low: Average:
Temperature: 8.2 °C 19.2 °C 3.8 °C 10.9 °C
Dew Point: 6.2 °C 10.4 °C 2.3 °C 6.5 °C
Humidity: 87 % 93 % 51 % 76 %
Wind Speed: 1.1 km/h 13.4 km/h 0 km/h 2.9 km/h
Wind Gust: 2.6 km/h 21.9 km/h - -
Wind:WNW - - South
Pressure: 1028 hPa 1028 hPa 1024.9 hPa -
Precipitation: 0 mm      
Historical Graphs
 
 
Ararat weather Find more about Weather in Ararat, AU


 



 


Tabular Data for August 28, 2016
Time Temperature Dew Point Pressure Wind Wind Speed Wind Gust Humidity Rainfall Rate (Hourly)
00:01 7.7 °C 5.7 °C 1026 hPa ENE 1.1 km/h 3.5 km/h 87 % 0 mm
00:02 7.7 °C 5.7 °C 1025.6 hPa East 2.6 km/h 5 km/h 87 % 0 mm
00:03 7.7 °C 5.7 °C 1026 hPa East 1.1 km/h 5 km/h 87 % 0 mm
00:06 7.7 °C 5.7 °C 1026 hPa Calm   5 km/h 87 % 0 mm
00:08 7.7 °C 5.6 °C 1026 hPa East 1.1 km/h 5 km/h 87 % 0 mm
00:11 7.7 °C 5.7 °C 1025.6 hPa Calm   5 km/h 87 % 0 mm
00:14 7.7 °C 5.6 °C 1026 hPa East 1.1 km/h 6.1 km/h 87 % 0 mm
00:15 7.7 °C 5.6 °C 1026 hPa East 2.6 km/h 6.1 km/h 87 % 0 mm
00:16 7.7 °C 5.7 °C 1025.6 hPa East 1.1 km/h 5 km/h 87 % 0 mm
00:17 7.7 °C 5.6 °C 1026 hPa ENE 1.1 km/h 6.1 km/h 87 % 0 mm
00:19 7.7 °C 5.6 °C 1026 hPa ENE 1.1 km/h 6.1 km/h 87 % 0 mm
00:21 7.7 °C 5.7 °C 1026 hPa East 1.1 km/h 5 km/h 87 % 0 mm
00:24 7.6 °C 5.3 °C 1026 hPa East 2.6 km/h 5 km/h 86 % 0 mm
00:26 7.7 °C 5.6 °C 1026 hPa East 1.1 km/h 5 km/h 87 % 0 mm
00:27 7.6 °C 5.3 °C 1026 hPa ENE 1.1 km/h 5 km/h 86 % 0 mm
00:31 7.7 °C 5.6 °C 1026 hPa East 1.1 km/h 6.1 km/h 87 % 0 mm
00:36 7.7 °C 5.6 °C 1026 hPa ENE 1.1 km/h 6.1 km/h 87 % 0 mm
00:41 7.6 °C 5.3 °C 1026 hPa East 2.6 km/h 5 km/h 86 % 0 mm
00:46 7.6 °C 5.3 °C 1026 hPa ENE 2.6 km/h 6.1 km/h 86 % 0 mm
00:51 7.6 °C 5.3 °C 1026.3 hPa ENE 1.1 km/h 6.1 km/h 86 % 0 mm
00:54 7.3 °C 5.1 °C 1026.3 hPa ENE 1.1 km/h 3.5 km/h 86 % 0 mm
00:56 7.3 °C 5.1 °C 1026 hPa East 1.1 km/h 3.5 km/h 86 % 0 mm
00:57 7.4 °C 5.3 °C 1026.3 hPa ENE 1.1 km/h 6.1 km/h 86 % 0 mm
00:59 7.2 °C 4.9 °C 1026.3 hPa ENE 1.1 km/h 3.5 km/h 86 % 0 mm
01:01 7.4 °C 5.3 °C 1026 hPa ENE 1.1 km/h 5 km/h 86 % 0 mm
01:03 7.1 °C 4.9 °C 1026 hPa ENE 1.1 km/h 3.5 km/h 86 % 0 mm
01:06 7.3 °C 5.2 °C 1026 hPa Calm   3.5 km/h 86 % 0 mm
01:08 6.9 °C 4.8 °C 1026 hPa Calm   3.5 km/h 86 % 0 mm
01:09 6.9 °C 4.8 °C 1026 hPa ENE 1.1 km/h 3.5 km/h 86 % 0 mm
01:10 6.9 °C 4.9 °C 1026 hPa ENE 1.1 km/h 2.6 km/h 87 % 0 mm
01:12 7.3 °C 5.1 °C 1026.3 hPa ENE 1.1 km/h 3.5 km/h 86 % 0 mm
01:17 7.2 °C 4.9 °C 1026.3 hPa ENE 1.1 km/h 3.5 km/h 86 % 0 mm
01:21 6.8 °C 4.8 °C 1025.6 hPa NNE 2.6 km/h 3.5 km/h 87 % 0 mm
01:22 7.1 °C 4.9 °C 1026 hPa Calm   3.5 km/h 86 % 0 mm
01:24 6.7 °C 4.7 °C 1025.6 hPa NNE 1.1 km/h 5 km/h 87 % 0 mm
01:25 6.7 °C 4.7 °C 1025.6 hPa North 2.6 km/h 6.1 km/h 87 % 0 mm
01:26 6.7 °C 4.7 °C 1025.6 hPa North 2.6 km/h 6.1 km/h 87 % 0 mm
01:27 6.9 °C 4.8 °C 1026 hPa ENE 1.1 km/h 3.5 km/h 86 % 0 mm
01:32 6.8 °C 4.8 °C 1026 hPa Calm   3.5 km/h 87 % 0 mm
01:37 6.8 °C 4.8 °C 1026 hPa ENE 2.6 km/h 3.5 km/h 87 % 0 mm
01:42 6.7 °C 4.7 °C 1025.6 hPa NNE 1.1 km/h 5 km/h 87 % 0 mm
01:47 6.6 °C 4.6 °C 1025.6 hPa Calm   6.1 km/h 87 % 0 mm
01:52 6.4 °C 4.4 °C 1025.6 hPa NNW 2.6 km/h 6.1 km/h 87 % 0 mm
01:57 6.4 °C 4.4 °C 1025.6 hPa North 1.1 km/h 6.1 km/h 87 % 0 mm
02:02 6.4 °C 4.6 °C 1025.6 hPa NNW 1.1 km/h 6.1 km/h 88 % 0 mm
02:07 6.4 °C 4.6 °C 1025.6 hPa North 1.1 km/h 5 km/h 88 % 0 mm
02:12 6.3 °C 4.4 °C 1025.3 hPa North 3.5 km/h 7.2 km/h 88 % 0 mm
02:17 6.2 °C 4.3 °C 1025.6 hPa North 2.6 km/h 7.2 km/h 88 % 0 mm
02:22 6.2 °C 4.3 °C 1025.6 hPa North 1.1 km/h 7.2 km/h 88 % 0 mm
02:27 6.1 °C 4.2 °C 1025.6 hPa NW 2.6 km/h 9.7 km/h 88 % 0 mm
02:32 6 °C 4.2 °C 1025.6 hPa NW 2.6 km/h 9.7 km/h 88 % 0 mm
02:37 6 °C 4.3 °C 1025.3 hPa NNW 3.5 km/h 8.7 km/h 89 % 0 mm
02:42 5.9 °C 4.2 °C 1025.3 hPa NW 3.5 km/h 8.7 km/h 89 % 0 mm
02:47 5.9 °C 4.2 °C 1025.3 hPa NW 2.6 km/h 9.7 km/h 89 % 0 mm
02:52 5.9 °C 4.2 °C 1025.3 hPa NW 2.6 km/h 9.7 km/h 89 % 0 mm
02:57 5.8 °C 4.3 °C 1025.3 hPa NW 2.6 km/h 7.2 km/h 90 % 0 mm
03:02 5.9 °C 4.4 °C 1025.6 hPa NNW 3.5 km/h 7.2 km/h 90 % 0 mm
03:07 5.9 °C 4.4 °C 1025.3 hPa NW 3.5 km/h 8.7 km/h 90 % 0 mm
03:12 6 °C 4.4 °C 1024.9 hPa NW 2.6 km/h 9.7 km/h 90 % 0 mm
03:17 6 °C 4.4 °C 1025.3 hPa NNW 2.6 km/h 9.7 km/h 90 % 0 mm
03:22 6.1 °C 4.6 °C 1025.3 hPa NNW 1.1 km/h 8.7 km/h 90 % 0 mm
03:27 6.1 °C 4.6 °C 1024.9 hPa NNW 1.1 km/h 8.7 km/h 90 % 0 mm
03:32 6.2 °C 4.7 °C 1024.9 hPa NNW 2.6 km/h 8.7 km/h 90 % 0 mm
03:37 6.2 °C 4.7 °C 1024.9 hPa North 2.6 km/h 6.1 km/h 90 % 0 mm
03:42 6.2 °C 4.7 °C 1024.9 hPa North 1.1 km/h 6.1 km/h 90 % 0 mm
03:47 6.2 °C 4.5 °C 1024.9 hPa NNE 1.1 km/h 6.1 km/h 89 % 0 mm
03:52 6.2 °C 4.5 °C 1025.3 hPa Calm   3.5 km/h 89 % 0 mm
03:57 6.1 °C 4.4 °C 1025.3 hPa NE 2.6 km/h 5 km/h 89 % 0 mm
04:02 6 °C 4.3 °C 1024.9 hPa NE 2.6 km/h 5 km/h 89 % 0 mm
04:07 5.9 °C 4.2 °C 1024.9 hPa Calm   6.1 km/h 89 % 0 mm
04:12 5.8 °C 4.1 °C 1024.9 hPa Calm   6.1 km/h 89 % 0 mm
04:17 5.7 °C 4 °C 1024.9 hPa NNE 1.1 km/h 5 km/h 89 % 0 mm
04:19 5.4 °C 3.6 °C 1024.9 hPa North 2.6 km/h 6.1 km/h 88 % 0 mm
04:20 5.4 °C 3.7 °C 1024.9 hPa North 2.6 km/h 6.1 km/h 89 % 0 mm
04:21 5.4 °C 3.6 °C 1024.9 hPa North 1.1 km/h 6.1 km/h 88 % 0 mm
04:22 5.7 °C 3.8 °C 1025.3 hPa Calm   5 km/h 88 % 0 mm
04:24 5.4 °C 3.7 °C 1024.9 hPa North 1.1 km/h 6.1 km/h 89 % 0 mm
04:26 5.4 °C 3.6 °C 1024.9 hPa North 1.1 km/h 6.1 km/h 88 % 0 mm
04:27 5.4 °C 3.6 °C 1024.9 hPa Calm   6.1 km/h 88 % 0 mm
04:28 5.6 °C 3.9 °C 1024.9 hPa North 1.1 km/h 3.5 km/h 89 % 0 mm
04:30 5.3 °C 3.4 °C 1025.3 hPa North 1.1 km/h 5 km/h 88 % 0 mm
04:32 5.3 °C 3.4 °C 1025.3 hPa North 1.1 km/h 5 km/h 88 % 0 mm
04:33 5.5 °C 3.7 °C 1025.3 hPa North 1.1 km/h 3.5 km/h 88 % 0 mm
04:35 5.2 °C 3.4 °C 1025.3 hPa NNE 1.1 km/h 5 km/h 88 % 0 mm
04:36 5.2 °C 3.4 °C 1025.3 hPa NNE 1.1 km/h 5 km/h 88 % 0 mm
04:37 5.2 °C 3.4 °C 1025.3 hPa Calm   5 km/h 88 % 0 mm
04:38 5.4 °C 3.7 °C 1024.9 hPa North 2.6 km/h 6.1 km/h 89 % 0 mm
04:43 5.4 °C 3.7 °C 1025.3 hPa North 2.6 km/h 6.1 km/h 89 % 0 mm
04:48 5.3 °C 3.4 °C 1025.3 hPa North 1.1 km/h 5 km/h 88 % 0 mm
04:53 5.2 °C 3.4 °C 1025.3 hPa NNE 1.1 km/h 5 km/h 88 % 0 mm
04:58 5.2 °C 3.4 °C 1025.3 hPa ENE 2.6 km/h 6.1 km/h 88 % 0 mm
05:03 5.2 °C 3.6 °C 1025.3 hPa ENE 2.6 km/h 6.1 km/h 89 % 0 mm
05:08 5.3 °C 3.6 °C 1025.6 hPa ENE 3.5 km/h 8.7 km/h 89 % 0 mm
05:13 5.3 °C 3.6 °C 1025.6 hPa NE 5 km/h 9.7 km/h 89 % 0 mm
05:18 5.4 °C 3.7 °C 1025.6 hPa NNE 2.6 km/h 9.7 km/h 89 % 0 mm
05:23 5.4 °C 3.7 °C 1025.6 hPa North 2.6 km/h 9.7 km/h 89 % 0 mm
05:28 5.3 °C 3.6 °C 1025.6 hPa North 2.6 km/h 7.2 km/h 89 % 0 mm
05:30 5.1 °C 3.4 °C 1025.3 hPa NNE 1.1 km/h 5 km/h 89 % 0 mm
05:31 5.1 °C 3.4 °C 1025.3 hPa NNE 1.1 km/h 5 km/h 89 % 0 mm
05:32 5.1 °C 3.4 °C 1025.6 hPa Calm   3.5 km/h 89 % 0 mm
05:33 5.3 °C 3.6 °C 1025.6 hPa NNW 1.1 km/h 6.1 km/h 89 % 0 mm
05:34 5 °C 3.3 °C 1025.6 hPa Calm   3.5 km/h 89 % 0 mm
05:35 5 °C 3.3 °C 1025.6 hPa NNE 1.1 km/h 3.5 km/h 89 % 0 mm
05:38 5.2 °C 3.6 °C 1025.6 hPa NNW 1.1 km/h 5 km/h 89 % 0 mm
05:39 4.9 °C 3.2 °C 1025.6 hPa Calm   3.5 km/h 89 % 0 mm
05:40 4.9 °C 3.2 °C 1025.6 hPa Calm   3.5 km/h 89 % 0 mm
05:41 4.9 °C 3.2 °C 1025.6 hPa Calm   3.5 km/h 89 % 0 mm
05:42 4.9 °C 3.2 °C 1025.6 hPa Calm   3.5 km/h 89 % 0 mm
05:43 5.1 °C 3.4 °C 1025.6 hPa North 1.1 km/h 5 km/h 89 % 0 mm
05:44 4.8 °C 3.2 °C 1025.6 hPa Calm   3.5 km/h 89 % 0 mm
05:45 4.8 °C 3.2 °C 1025.6 hPa North 1.1 km/h 3.5 km/h 89 % 0 mm
05:46 4.8 °C 3.2 °C 1025.6 hPa NNW 1.1 km/h 3.5 km/h 89 % 0 mm
05:47 4.8 °C 3.2 °C 1025.6 hPa NNW 1.1 km/h 2.6 km/h 89 % 0 mm
05:48 5.1 °C 3.4 °C 1025.3 hPa NNE 1.1 km/h 5 km/h 89 % 0 mm
05:49 4.6 °C 2.9 °C 1026 hPa Calm   2.6 km/h 89 % 0 mm
05:50 4.6 °C 2.9 °C 1025.6 hPa Calm   2.6 km/h 89 % 0 mm
05:53 5 °C 3.3 °C 1025.6 hPa NNE 1.1 km/h 3.5 km/h 89 % 0 mm
05:58 4.9 °C 3.2 °C 1025.6 hPa Calm   3.5 km/h 89 % 0 mm
06:03 4.8 °C 3.2 °C 1025.6 hPa NNW 1.1 km/h 3.5 km/h 89 % 0 mm
06:08 4.6 °C 2.9 °C 1026 hPa Calm   2.6 km/h 89 % 0 mm
06:13 4.5 °C 2.8 °C 1026 hPa Calm   2.6 km/h 89 % 0 mm
06:18 4.4 °C 2.8 °C 1026 hPa Calm   2.6 km/h 89 % 0 mm
06:23 4.4 °C 2.8 °C 1026 hPa ENE 1.1 km/h 3.5 km/h 89 % 0 mm
06:28 4.3 °C 2.7 °C 1026 hPa Calm   3.5 km/h 89 % 0 mm
06:33 4.2 °C 2.6 °C 1026.3 hPa Calm   3.5 km/h 89 % 0 mm
06:34 3.8 °C 2.3 °C 1026.3 hPa Calm   1.1 km/h 90 % 0 mm
06:35 3.8 °C 2.3 °C 1026.3 hPa Calm   1.1 km/h 90 % 0 mm
06:37 3.8 °C 2.3 °C 1026.3 hPa Calm     90 % 0 mm
06:38 4.1 °C 2.6 °C 1026 hPa NNE 1.1 km/h 3.5 km/h 90 % 0 mm
06:39 3.8 °C 2.3 °C 1026.6 hPa Calm     90 % 0 mm
06:40 3.8 °C 2.3 °C 1026.3 hPa Calm     90 % 0 mm
06:41 3.8 °C 2.3 °C 1026.3 hPa Calm     90 % 0 mm
06:42 3.8 °C 2.3 °C 1026.6 hPa Calm     90 % 0 mm
06:43 4 °C 2.6 °C 1026.3 hPa Calm   3.5 km/h 90 % 0 mm
06:45 3.8 °C 2.3 °C 1026.3 hPa Calm   2.6 km/h 90 % 0 mm
06:46 3.8 °C 2.3 °C 1026.6 hPa NE 1.1 km/h 2.6 km/h 90 % 0 mm
06:47 3.8 °C 2.3 °C 1026.3 hPa Calm   2.6 km/h 90 % 0 mm
06:48 3.9 °C 2.4 °C 1026.3 hPa Calm   2.6 km/h 90 % 0 mm
06:49 3.8 °C 2.5 °C 1026.6 hPa NE 1.1 km/h 2.6 km/h 91 % 0 mm
06:50 3.8 °C 2.5 °C 1026.6 hPa Calm   2.6 km/h 91 % 0 mm
06:51 3.9 °C 2.6 °C 1026.6 hPa Calm   2.6 km/h 91 % 0 mm
06:53 3.8 °C 2.3 °C 1026.3 hPa Calm     90 % 0 mm
06:54 3.9 °C 2.6 °C 1026.6 hPa Calm   2.6 km/h 91 % 0 mm
06:55 3.9 °C 2.6 °C 1026.6 hPa Calm   2.6 km/h 91 % 0 mm
06:56 3.9 °C 2.6 °C 1026.6 hPa Calm   2.6 km/h 91 % 0 mm
07:00 3.9 °C 2.4 °C 1026.6 hPa NW 1.1 km/h 3.5 km/h 90 % 0 mm
07:04 3.8 °C 2.3 °C 1026.6 hPa Calm   2.6 km/h 90 % 0 mm
07:05 3.8 °C 2.5 °C 1026.6 hPa Calm   3.5 km/h 91 % 0 mm
07:06 3.8 °C 2.5 °C 1026.6 hPa Calm   3.5 km/h 91 % 0 mm
07:07 3.8 °C 2.5 °C 1026.6 hPa WNW 1.1 km/h 3.5 km/h 91 % 0 mm
07:08 3.8 °C 2.5 °C 1027 hPa Calm   3.5 km/h 91 % 0 mm
07:09 3.9 °C 2.6 °C 1026.6 hPa Calm   2.6 km/h 91 % 0 mm
07:14 3.9 °C 2.6 °C 1026.6 hPa Calm   2.6 km/h 91 % 0 mm
07:15 3.9 °C 2.6 °C 1027 hPa Calm   3.5 km/h 91 % 0 mm
07:16 3.9 °C 2.6 °C 1027 hPa Calm   3.5 km/h 91 % 0 mm
07:17 3.9 °C 2.6 °C 1027 hPa NNW 1.1 km/h 3.5 km/h 91 % 0 mm
07:18 3.9 °C 2.6 °C 1026.6 hPa NNW 1.1 km/h 3.5 km/h 91 % 0 mm
07:19 3.8 °C 2.5 °C 1026.6 hPa NW 1.1 km/h 3.5 km/h 91 % 0 mm
07:24 3.8 °C 2.5 °C 1026.6 hPa WNW 1.1 km/h 3.5 km/h 91 % 0 mm
07:29 3.8 °C 2.5 °C 1026.6 hPa NW 1.1 km/h 2.6 km/h 91 % 0 mm
07:34 3.9 °C 2.6 °C 1027 hPa Calm   3.5 km/h 91 % 0 mm
07:44 4.2 °C 2.9 °C 1026.6 hPa NE 2.6 km/h 6.1 km/h 91 % 0 mm
07:49 4.6 °C 3.4 °C 1026.6 hPa NE 3.5 km/h 7.2 km/h 92 % 0 mm
07:54 5 °C 3.9 °C 1026.6 hPa NE 6.1 km/h 8.7 km/h 93 % 0 mm
07:59 5.4 °C 4.3 °C 1027 hPa NE 5 km/h 8.7 km/h 93 % 0 mm
08:04 5.7 °C 4.5 °C 1027 hPa NE 3.5 km/h 8.7 km/h 92 % 0 mm
08:09 6.1 °C 4.9 °C 1027 hPa NE 3.5 km/h 9.7 km/h 92 % 0 mm
08:14 6.7 °C 5.4 °C 1027 hPa NE 5 km/h 9.7 km/h 92 % 0 mm
08:19 7.1 °C 5.7 °C 1027 hPa NNE 2.6 km/h 9.7 km/h 91 % 0 mm
08:24 7.3 °C 5.8 °C 1027 hPa North 2.6 km/h 11.1 km/h 90 % 0 mm
08:29 7.6 °C 5.8 °C 1027 hPa North 3.5 km/h 11.1 km/h 89 % 0 mm
08:34 7.7 °C 5.9 °C 1027 hPa North 3.5 km/h 11.1 km/h 88 % 0 mm
08:39 7.8 °C 5.8 °C 1027 hPa North 3.5 km/h 11.1 km/h 87 % 0 mm
08:44 8.1 °C 6 °C 1027 hPa North 2.6 km/h 8.7 km/h 87 % 0 mm
08:49 8.2 °C 6.2 °C 1027 hPa North 3.5 km/h 9.7 km/h 87 % 0 mm
08:54 8.4 °C 6.2 °C 1027 hPa North 3.5 km/h 9.7 km/h 86 % 0 mm
08:59 8.7 °C 6.5 °C 1027 hPa North 2.6 km/h 7.2 km/h 86 % 0 mm
09:04 8.9 °C 6.6 °C 1027 hPa North 2.6 km/h 9.7 km/h 85 % 0 mm
09:09 9 °C 6.4 °C 1027 hPa North 3.5 km/h 9.7 km/h 84 % 0 mm
09:14 9.4 °C 6.8 °C 1027 hPa NNE 7.2 km/h 12.2 km/h 84 % 0 mm
09:17 11.8 °C 7.9 °C 1027 hPa North 2.6 km/h 11.1 km/h 77 % 0 mm
09:20 11.8 °C 7.7 °C 1027 hPa NNW 3.5 km/h 12.2 km/h 76 % 0 mm
09:21 11.8 °C 7.7 °C 1027 hPa NNW 3.5 km/h 12.2 km/h 76 % 0 mm
09:22 11.8 °C 7.7 °C 1027 hPa NNW 3.5 km/h 12.2 km/h 76 % 0 mm
09:23 11.8 °C 7.7 °C 1027 hPa NNW 2.6 km/h 12.2 km/h 76 % 0 mm
09:24 10.8 °C 7.7 °C 1027 hPa North 3.5 km/h 14.8 km/h 81 % 0 mm
09:26 11.8 °C 7.7 °C 1026.6 hPa NNW 3.5 km/h 12.2 km/h 76 % 0 mm
09:27 11.8 °C 7.7 °C 1027 hPa NW 3.5 km/h 12.2 km/h 76 % 0 mm
09:28 11.8 °C 7.7 °C 1026.6 hPa NNW 2.6 km/h 12.2 km/h 76 % 0 mm
09:29 11.4 °C 8.2 °C 1027 hPa North 6.1 km/h 14.8 km/h 80 % 0 mm
09:33 11.8 °C 7.8 °C 1027 hPa NW 2.6 km/h 9.7 km/h 76 % 0 mm
09:34 11.8 °C 7.9 °C 1027 hPa North 2.6 km/h 11.1 km/h 77 % 0 mm
09:45 11.8 °C 7.7 °C 1027 hPa NW 3.5 km/h 12.2 km/h 76 % 0 mm
09:50 11.8 °C 7.8 °C 1027 hPa NW 2.6 km/h 9.7 km/h 76 % 0 mm
09:55 12.1 °C 7.9 °C 1027 hPa NNW 3.5 km/h 9.7 km/h 76 % 0 mm
10:00 12.2 °C 7.8 °C 1027 hPa NNW 5 km/h 12.2 km/h 75 % 0 mm
10:05 12.4 °C 8.2 °C 1027.3 hPa North 5 km/h 12.2 km/h 75 % 0 mm
10:10 12.7 °C 8.2 °C 1027.3 hPa NNE 3.5 km/h 11.1 km/h 74 % 0 mm
10:15 12.8 °C 8.3 °C 1027.3 hPa North 2.6 km/h 8.7 km/h 74 % 0 mm
10:20 12.9 °C 8.4 °C 1027 hPa NNW 3.5 km/h 7.2 km/h 74 % 0 mm
10:25 13.1 °C 8.4 °C 1027 hPa North 2.6 km/h 9.7 km/h 73 % 0 mm
10:27 14.3 °C 9.1 °C 1027 hPa North 2.6 km/h 12.2 km/h 71 % 0 mm
10:30 13.3 °C 8.6 °C 1027 hPa North 2.6 km/h 9.7 km/h 73 % 0 mm
10:33 14.6 °C 9.4 °C 1026.6 hPa North 2.6 km/h 12.2 km/h 71 % 0 mm
10:34 14.7 °C 9.5 °C 1026.6 hPa North 3.5 km/h 8.7 km/h 71 % 0 mm
10:35 13.7 °C 8.9 °C 1027 hPa NNE 2.6 km/h 8.7 km/h 73 % 0 mm
10:36 14.7 °C 9.5 °C 1026.6 hPa North 5 km/h 11.1 km/h 71 % 0 mm
10:40 14.3 °C 9.1 °C 1027 hPa North 5 km/h 12.2 km/h 71 % 0 mm
10:43 14.8 °C 9.6 °C 1026.6 hPa North 5 km/h 11.1 km/h 71 % 0 mm
10:44 14.9 °C 9.5 °C 1026.6 hPa North 5 km/h 11.1 km/h 70 % 0 mm
10:45 14.3 °C 9.1 °C 1027 hPa North 2.6 km/h 12.2 km/h 71 % 0 mm
10:46 14.9 °C 9.5 °C 1026.6 hPa North 6.1 km/h 11.1 km/h 70 % 0 mm
10:47 15 °C 9.6 °C 1026.6 hPa NNE 3.5 km/h 11.1 km/h 70 % 0 mm
10:50 14.5 °C 9.3 °C 1027 hPa North 5 km/h 12.2 km/h 71 % 0 mm
10:51 15.2 °C 9.6 °C 1026.6 hPa NNE 11.1 km/h 15.8 km/h 69 % 0 mm
10:54 15.3 °C 9 °C 1026.6 hPa NE 12.2 km/h 19.5 km/h 66 % 0 mm
10:55 14.7 °C 9.5 °C 1026.6 hPa North 2.6 km/h 11.1 km/h 71 % 0 mm
10:57 15.5 °C 9.2 °C 1026.6 hPa NE 7.2 km/h 21.9 km/h 66 % 0 mm
11:00 14.8 °C 9.6 °C 1026.6 hPa North 5 km/h 11.1 km/h 71 % 0 mm
11:01 16 °C 9.6 °C 1026.6 hPa NE 6.1 km/h 21.9 km/h 66 % 0 mm
11:05 15 °C 9.6 °C 1026.3 hPa NNE 5 km/h 11.1 km/h 70 % 0 mm
11:10 15.2 °C 9.3 °C 1026.6 hPa NNE 13.4 km/h 19.5 km/h 68 % 0 mm
11:15 15.6 °C 9.5 °C 1026.6 hPa NE 6.1 km/h 21.9 km/h 67 % 0 mm
11:20 16.1 °C 9.5 °C 1026.6 hPa NE 8.7 km/h 21.9 km/h 65 % 0 mm
11:25 16.6 °C 9.5 °C 1026.6 hPa NNE 6.1 km/h 18.3 km/h 63 % 0 mm
11:30 16.4 °C 9.2 °C 1026.6 hPa NNE 7.2 km/h 18.3 km/h 62 % 0 mm
11:35 16.4 °C 9.1 °C 1026.3 hPa NNE 12.2 km/h 20.9 km/h 62 % 0 mm
11:45 16.1 °C 9.1 °C 1026.3 hPa NE 3.5 km/h 20.9 km/h 63 % 0 mm
11:50 16.4 °C 9.3 °C 1026.6 hPa North 7.2 km/h 14.8 km/h 63 % 0 mm
11:55 16.6 °C 9.3 °C 1026.6 hPa NNW 8.7 km/h 17.2 km/h 62 % 0 mm
11:59 15.4 °C 8.4 °C 1026.6 hPa NNW 8.7 km/h 15.8 km/h 63 % 0 mm
12:00 16.4 °C 8.8 °C 1026.3 hPa North 3.5 km/h 17.2 km/h 61 % 0 mm
12:03 15.5 °C 8.9 °C 1026.3 hPa NNW 2.6 km/h 15.8 km/h 65 % 0 mm
12:04 15.6 °C 9.3 °C 1026.3 hPa NNW 2.6 km/h 15.8 km/h 66 % 0 mm
12:05 16 °C 8.7 °C 1026.3 hPa NNE 3.5 km/h 15.8 km/h 62 % 0 mm
12:06 15.7 °C 9.3 °C 1026.3 hPa North 3.5 km/h 13.4 km/h 66 % 0 mm
12:10 15.8 °C 8.5 °C 1026.3 hPa North 8.7 km/h 15.8 km/h 62 % 0 mm
12:11 16.2 °C 9.6 °C 1026.3 hPa North 5 km/h 17.2 km/h 65 % 0 mm
12:14 16.4 °C 9.4 °C 1026 hPa North 7.2 km/h 17.2 km/h 63 % 0 mm
12:15 15.5 °C 8.5 °C 1026.6 hPa NNW 3.5 km/h 15.8 km/h 63 % 0 mm
12:16 16.7 °C 9.6 °C 1026.3 hPa North 6.1 km/h 17.2 km/h 63 % 0 mm
12:20 15.4 °C 8.8 °C 1026.3 hPa NNW 3.5 km/h 15.8 km/h 65 % 0 mm
12:21 16.8 °C 9.3 °C 1026.3 hPa NNW 7.2 km/h 17.2 km/h 61 % 0 mm
12:22 16.9 °C 9.4 °C 1026 hPa NNW 7.2 km/h 15.8 km/h 61 % 0 mm
12:24 16.9 °C 9.2 °C 1026.3 hPa NNW 8.7 km/h 15.8 km/h 60 % 0 mm
12:25 15.9 °C 9.3 °C 1026.3 hPa North 8.7 km/h 13.4 km/h 65 % 0 mm
12:30 16.4 °C 9.6 °C 1026 hPa NNE 9.7 km/h 17.2 km/h 64 % 0 mm
12:35 16.8 °C 9.7 °C 1026 hPa North 6.1 km/h 17.2 km/h 63 % 0 mm
12:40 16.9 °C 9.2 °C 1026.3 hPa NNW 9.7 km/h 15.8 km/h 60 % 0 mm
12:45 16.8 °C 9.3 °C 1026 hPa North 11.1 km/h 17.2 km/h 61 % 0 mm
12:51 16.9 °C 9.2 °C 1026 hPa NNE 7.2 km/h 17.2 km/h 60 % 0 mm
12:56 17.2 °C 9.6 °C 1026 hPa North 7.2 km/h 18.3 km/h 61 % 0 mm
13:01 17.1 °C 9.5 °C 1026 hPa NNW 6.1 km/h 18.3 km/h 61 % 0 mm
13:06 16.8 °C 9.6 °C 1026 hPa NNE 5 km/h 17.2 km/h 62 % 0 mm
13:11 17.2 °C 10.1 °C 1025.6 hPa NNE 9.7 km/h 18.3 km/h 63 % 0 mm
13:16 17.6 °C 10.4 °C 1025.6 hPa North 2.6 km/h 18.3 km/h 63 % 0 mm
13:21 17.7 °C 10.1 °C 1025.6 hPa NNE 7.2 km/h 17.2 km/h 61 % 0 mm
13:26 17.3 °C 9.5 °C 1026 hPa NNE 6.1 km/h 17.2 km/h 60 % 0 mm
13:31 17.4 °C 9.6 °C 1025.6 hPa North 6.1 km/h 18.3 km/h 60 % 0 mm
13:36 17.8 °C 10 °C 1025.6 hPa NNW 6.1 km/h 18.3 km/h 60 % 0 mm
13:41 18.1 °C 9.7 °C 1025.6 hPa NW 3.5 km/h 13.4 km/h 58 % 0 mm
13:46 18.3 °C 9.9 °C 1025.6 hPa NNW 5 km/h 14.8 km/h 58 % 0 mm
13:51 18.4 °C 10 °C 1025.6 hPa NNW 7.2 km/h 17.2 km/h 58 % 0 mm
13:56 18.4 °C 9.8 °C 1025.6 hPa NNW 7.2 km/h 17.2 km/h 57 % 0 mm
14:01 18.8 °C 10.1 °C 1025.6 hPa North 5 km/h 18.3 km/h 57 % 0 mm
14:06 19 °C 10.1 °C 1025.6 hPa NNE 11.1 km/h 19.5 km/h 56 % 0 mm
14:11 18.9 °C 9.9 °C 1025.6 hPa North 3.5 km/h 19.5 km/h 56 % 0 mm
14:16 18.9 °C 9.7 °C 1025.6 hPa NNW 11.1 km/h 21.9 km/h 55 % 0 mm
14:21 18.7 °C 9.5 °C 1025.6 hPa North 8.7 km/h 21.9 km/h 55 % 0 mm
14:23 19 °C 10.1 °C 1025.3 hPa NNW 3.5 km/h 19.5 km/h 56 % 0 mm
14:24 19.1 °C 10.1 °C 1025.3 hPa NNW 6.1 km/h 19.5 km/h 56 % 0 mm
14:25 19.1 °C 9.9 °C 1025.3 hPa NNW 6.1 km/h 19.5 km/h 55 % 0 mm
14:26 18.7 °C 9.8 °C 1025.6 hPa NNW 3.5 km/h 21.9 km/h 56 % 0 mm
14:27 19 °C 9.8 °C 1024.9 hPa North 8.7 km/h 19.5 km/h 55 % 0 mm
14:29 18.9 °C 9.7 °C 1024.9 hPa North 8.7 km/h 21.9 km/h 55 % 0 mm
14:31 18.6 °C 9.4 °C 1025.3 hPa NNW 8.7 km/h 18.3 km/h 55 % 0 mm
14:33 18.8 °C 9.6 °C 1024.9 hPa North 8.7 km/h 21.9 km/h 55 % 0 mm
14:34 18.8 °C 9.6 °C 1024.9 hPa North 8.7 km/h 21.9 km/h 55 % 0 mm
14:35 18.8 °C 9.9 °C 1024.9 hPa North 6.1 km/h 21.9 km/h 56 % 0 mm
14:36 18.9 °C 9.9 °C 1025.3 hPa North 9.7 km/h 18.3 km/h 56 % 0 mm
14:38 18.9 °C 9.9 °C 1024.9 hPa NNE 6.1 km/h 19.5 km/h 56 % 0 mm
14:40 18.9 °C 9.9 °C 1024.9 hPa NNE 3.5 km/h 19.5 km/h 56 % 0 mm
14:41 19.1 °C 10.1 °C 1025.3 hPa NNW 6.1 km/h 19.5 km/h 56 % 0 mm
14:46 19 °C 9.8 °C 1024.9 hPa North 12.2 km/h 21.9 km/h 55 % 0 mm
14:51 18.8 °C 9.6 °C 1024.9 hPa North 8.7 km/h 21.9 km/h 55 % 0 mm
14:54 19.1 °C 9.6 °C 1025.3 hPa NNE 8.7 km/h 15.8 km/h 54 % 0 mm
14:56 18.9 °C 9.9 °C 1024.9 hPa NNE 6.1 km/h 19.5 km/h 56 % 0 mm
14:57 19.1 °C 10.1 °C 1024.9 hPa North 7.2 km/h 15.8 km/h 56 % 0 mm
14:58 19.1 °C 9.9 °C 1024.9 hPa North 11.1 km/h 20.9 km/h 55 % 0 mm
14:59 19.1 °C 9.6 °C 1024.9 hPa NNE 7.2 km/h 20.9 km/h 54 % 0 mm
15:01 19 °C 10.1 °C 1024.9 hPa NNE 3.5 km/h 15.8 km/h 56 % 0 mm
15:02 19 °C 9.8 °C 1024.9 hPa North 13.4 km/h 20.9 km/h 55 % 0 mm
15:03 19 °C 9.8 °C 1024.9 hPa North 13.4 km/h 20.9 km/h 55 % 0 mm
15:04 19.1 °C 9.9 °C 1024.9 hPa North 8.7 km/h 20.9 km/h 55 % 0 mm
15:05 19.1 °C 9.6 °C 1024.9 hPa North 7.2 km/h 20.9 km/h 54 % 0 mm
15:06 19.2 °C 10.2 °C 1024.9 hPa NNE 8.7 km/h 15.8 km/h 56 % 0 mm
15:07 19 °C 9.2 °C 1024.9 hPa North 8.7 km/h 20.9 km/h 53 % 0 mm
15:08 19 °C 9.2 °C 1024.9 hPa North 8.7 km/h 20.9 km/h 53 % 0 mm
15:09 18.8 °C 8.8 °C 1024.9 hPa North 6.1 km/h 18.3 km/h 52 % 0 mm
15:10 18.7 °C 8.4 °C 1024.9 hPa North 6.1 km/h 18.3 km/h 51 % 0 mm
15:11 19.1 °C 9.6 °C 1025.3 hPa NNE 8.7 km/h 15.8 km/h 54 % 0 mm
15:13 18.5 °C 8.5 °C 1025.3 hPa North 8.7 km/h 18.3 km/h 52 % 0 mm
15:14 18.4 °C 8.7 °C 1024.9 hPa North 5 km/h 17.2 km/h 53 % 0 mm
15:15 18.4 °C 8.7 °C 1025.3 hPa North 3.5 km/h 17.2 km/h 53 % 0 mm
15:16 19.1 °C 9.6 °C 1024.9 hPa NNE 8.7 km/h 20.9 km/h 54 % 0 mm
15:17 18.4 °C 8.9 °C 1025.3 hPa North 12.2 km/h 20.9 km/h 54 % 0 mm
15:18 18.3 °C 8.9 °C 1025.3 hPa North 6.1 km/h 20.9 km/h 54 % 0 mm
15:19 18.3 °C 8.9 °C 1025.3 hPa North 11.1 km/h 20.9 km/h 54 % 0 mm
15:20 18.3 °C 8.9 °C 1025.3 hPa North 11.1 km/h 20.9 km/h 54 % 0 mm
15:21 19 °C 9.8 °C 1024.9 hPa North 13.4 km/h 20.9 km/h 55 % 0 mm
15:22 18.3 °C 8.9 °C 1025.3 hPa North 11.1 km/h 20.9 km/h 54 % 0 mm
15:26 18.8 °C 8.8 °C 1024.9 hPa North 6.1 km/h 18.3 km/h 52 % 0 mm
15:31 18.4 °C 8.7 °C 1024.9 hPa North 5 km/h 17.2 km/h 53 % 0 mm
15:36 18.3 °C 8.9 °C 1025.3 hPa North 6.1 km/h 20.9 km/h 54 % 0 mm
15:41 18.2 °C 8.8 °C 1025.3 hPa NNE 7.2 km/h 20.9 km/h 54 % 0 mm
15:46 18.1 °C 8.4 °C 1025.3 hPa North 9.7 km/h 18.3 km/h 53 % 0 mm
15:51 17.9 °C 8.2 °C 1025.3 hPa North 5 km/h 14.8 km/h 53 % 0 mm
15:56 17.7 °C 8.3 °C 1025.3 hPa North 6.1 km/h 14.8 km/h 54 % 0 mm
16:06 17.6 °C 8.1 °C 1025.3 hPa NW 6.1 km/h 17.2 km/h 54 % 0 mm
16:11 17.7 °C 8.6 °C 1025.3 hPa NNW 7.2 km/h 17.2 km/h 55 % 0 mm
16:16 17.7 °C 8.5 °C 1025.3 hPa NNE 7.2 km/h 12.2 km/h 55 % 0 mm
16:19 17.1 °C 8.7 °C 1025.3 hPa NNE 3.5 km/h 11.1 km/h 58 % 0 mm
16:21 17.4 °C 8.3 °C 1025.3 hPa NNE 3.5 km/h 13.4 km/h 55 % 0 mm
16:22 16.9 °C 8.7 °C 1025.3 hPa NNE 3.5 km/h 9.7 km/h 58 % 0 mm
16:23 16.8 °C 8.6 °C 1025.3 hPa NNE 8.7 km/h 12.2 km/h 58 % 0 mm
16:24 16.8 °C 8.6 °C 1025.3 hPa NNE 8.7 km/h 12.2 km/h 58 % 0 mm
16:25 16.9 °C 8.7 °C 1024.9 hPa NNE 6.1 km/h 12.2 km/h 58 % 0 mm
16:26 17.3 °C 8.8 °C 1025.3 hPa North 3.5 km/h 13.4 km/h 57 % 0 mm
16:31 17.2 °C 8.6 °C 1025.3 hPa NNE 2.6 km/h 11.1 km/h 57 % 0 mm
16:32 16.8 °C 8.6 °C 1025.3 hPa NE 3.5 km/h 12.2 km/h 58 % 0 mm
16:33 16.8 °C 8.4 °C 1025.3 hPa NE 5 km/h 12.2 km/h 58 % 0 mm
16:35 16.7 °C 8.4 °C 1025.3 hPa NE 3.5 km/h 11.1 km/h 58 % 0 mm
16:36 16.9 °C 8.7 °C 1025.3 hPa NNE 6.1 km/h 11.1 km/h 58 % 0 mm
16:37 16.6 °C 8.3 °C 1025.3 hPa NNE 2.6 km/h 11.1 km/h 58 % 0 mm
16:41 16.8 °C 8.6 °C 1025.3 hPa NNE 3.5 km/h 12.2 km/h 58 % 0 mm
16:46 16.8 °C 8.6 °C 1025.3 hPa NE 6.1 km/h 12.2 km/h 58 % 0 mm
16:52 16.8 °C 8.4 °C 1025.3 hPa NE 3.5 km/h 11.1 km/h 58 % 0 mm
16:57 16.6 °C 8.3 °C 1025.3 hPa NNE 3.5 km/h 11.1 km/h 58 % 0 mm
17:02 16.4 °C 8.3 °C 1025.3 hPa Calm   11.1 km/h 59 % 0 mm
17:07 16.2 °C 8.4 °C 1025.6 hPa North 1.1 km/h 11.1 km/h 60 % 0 mm
17:11 16.1 °C 8.3 °C 1025.6 hPa North 2.6 km/h 7.2 km/h 60 % 0 mm
17:17 16 °C 8.7 °C 1025.6 hPa North 3.5 km/h 7.2 km/h 62 % 0 mm
17:22 15.9 °C 8.6 °C 1025.3 hPa NNE 3.5 km/h 7.2 km/h 62 % 0 mm
17:27 15.8 °C 8.8 °C 1025.3 hPa NNE 3.5 km/h 7.2 km/h 63 % 0 mm
17:32 15.6 °C 8.8 °C 1025.3 hPa NE 1.1 km/h 7.2 km/h 64 % 0 mm
17:37 15.5 °C 8.7 °C 1025.6 hPa Calm   5 km/h 64 % 0 mm
17:42 15.4 °C 8.4 °C 1025.6 hPa Calm   5 km/h 63 % 0 mm
17:47 15.2 °C 8.4 °C 1025.6 hPa Calm   2.6 km/h 64 % 0 mm
17:52 15.1 °C 8.3 °C 1025.6 hPa Calm   2.6 km/h 64 % 0 mm
17:57 15 °C 8.5 °C 1025.6 hPa Calm   2.6 km/h 65 % 0 mm
18:02 14.8 °C 8.3 °C 1025.6 hPa Calm   1.1 km/h 65 % 0 mm
18:07 14.7 °C 8.2 °C 1026 hPa Calm   1.1 km/h 65 % 0 mm
18:12 14.4 °C 8.2 °C 1026 hPa Calm     66 % 0 mm
18:17 14.2 °C 7.9 °C 1025.6 hPa Calm     66 % 0 mm
18:22 14 °C 7.8 °C 1026 hPa Calm     66 % 0 mm
18:23 13.3 °C 7.8 °C 1025.6 hPa Calm   2.6 km/h 69 % 0 mm
18:24 13.3 °C 7.8 °C 1026 hPa Calm   2.6 km/h 69 % 0 mm
18:25 13.3 °C 7.8 °C 1025.6 hPa Calm   2.6 km/h 69 % 0 mm
18:27 13.8 °C 7.8 °C 1025.6 hPa Calm   2.6 km/h 67 % 0 mm
18:28 13.2 °C 7.7 °C 1026 hPa Calm   2.6 km/h 69 % 0 mm
18:29 13.2 °C 7.9 °C 1026 hPa Calm   2.6 km/h 70 % 0 mm
18:31 13.1 °C 7.8 °C 1026 hPa Calm   2.6 km/h 70 % 0 mm
18:32 13.6 °C 7.8 °C 1026 hPa NW 1.1 km/h 2.6 km/h 68 % 0 mm
18:33 13.1 °C 8 °C 1025.6 hPa Calm   1.1 km/h 71 % 0 mm
18:34 13.1 °C 8 °C 1026 hPa Calm   1.1 km/h 71 % 0 mm
18:37 13.4 °C 7.7 °C 1025.6 hPa Calm   2.6 km/h 68 % 0 mm
18:42 13.3 °C 7.8 °C 1025.6 hPa Calm   2.6 km/h 69 % 0 mm
18:47 13.1 °C 7.8 °C 1026 hPa Calm   2.6 km/h 70 % 0 mm
18:52 13.1 °C 8 °C 1026 hPa Calm   1.1 km/h 71 % 0 mm
18:57 12.9 °C 7.8 °C 1026 hPa Calm     71 % 0 mm
19:02 12.8 °C 7.7 °C 1026 hPa Calm     71 % 0 mm
19:07 12.7 °C 7.5 °C 1026 hPa Calm   2.6 km/h 71 % 0 mm
19:12 12.6 °C 7.4 °C 1026 hPa WNW 1.1 km/h 2.6 km/h 71 % 0 mm
19:17 12.3 °C 7.4 °C 1026.3 hPa NW 1.1 km/h 2.6 km/h 72 % 0 mm
19:22 12.2 °C 7.6 °C 1026.3 hPa NW 1.1 km/h 2.6 km/h 73 % 0 mm
19:27 12.1 °C 7.4 °C 1026.3 hPa NW 1.1 km/h 2.6 km/h 73 % 0 mm
19:32 11.9 °C 7.4 °C 1026.3 hPa Calm   2.6 km/h 74 % 0 mm
19:37 11.8 °C 7.4 °C 1026.3 hPa WNW 1.1 km/h 2.6 km/h 74 % 0 mm
19:42 11.8 °C 7.5 °C 1026.6 hPa Calm   2.6 km/h 75 % 0 mm
19:47 11.7 °C 7.4 °C 1026.6 hPa Calm   1.1 km/h 75 % 0 mm
19:52 11.4 °C 7.2 °C 1026.3 hPa Calm     75 % 0 mm
19:57 11.4 °C 7.3 °C 1026.6 hPa Calm     76 % 0 mm
20:02 11.3 °C 7.2 °C 1026.6 hPa Calm   1.1 km/h 76 % 0 mm
20:07 11.1 °C 7 °C 1026.6 hPa Calm   1.1 km/h 76 % 0 mm
20:12 10.9 °C 6.8 °C 1026.6 hPa Calm   2.6 km/h 76 % 0 mm
20:17 10.7 °C 6.8 °C 1026.6 hPa Calm   2.6 km/h 77 % 0 mm
20:22 10.6 °C 6.7 °C 1026.6 hPa West 1.1 km/h 2.6 km/h 77 % 0 mm
20:25 9.8 °C 6.2 °C 1027 hPa NW 1.1 km/h 2.6 km/h 78 % 0 mm
20:26 9.7 °C 6.1 °C 1027 hPa NW 1.1 km/h 2.6 km/h 78 % 0 mm
20:27 9.7 °C 6.1 °C 1027 hPa NW 1.1 km/h 2.6 km/h 78 % 0 mm
20:28 10.3 °C 6.4 °C 1027 hPa Calm   3.5 km/h 77 % 0 mm
20:29 9.6 °C 5.9 °C 1027.3 hPa Calm   2.6 km/h 78 % 0 mm
20:30 9.6 °C 5.9 °C 1027 hPa Calm   2.6 km/h 78 % 0 mm
20:33 10.1 °C 6.2 °C 1027 hPa NW 1.1 km/h 3.5 km/h 77 % 0 mm
20:36 9.5 °C 5.9 °C 1027 hPa NW 2.6 km/h 3.5 km/h 78 % 0 mm
20:38 10 °C 6.2 °C 1027 hPa NW 1.1 km/h 2.6 km/h 77 % 0 mm
20:43 9.8 °C 6.2 °C 1027 hPa NW 1.1 km/h 2.6 km/h 78 % 0 mm
20:45 9.3 °C 5.8 °C 1027.3 hPa Calm   3.5 km/h 79 % 0 mm
20:48 9.6 °C 5.9 °C 1027 hPa Calm   2.6 km/h 78 % 0 mm
20:49 9.1 °C 5.7 °C 1027.3 hPa WNW 1.1 km/h 2.6 km/h 79 % 0 mm
20:50 9.1 °C 5.7 °C 1027.3 hPa Calm   2.6 km/h 79 % 0 mm
20:51 9.1 °C 5.7 °C 1027.3 hPa Calm   2.6 km/h 79 % 0 mm
20:52 9.1 °C 5.7 °C 1027.3 hPa Calm   2.6 km/h 79 % 0 mm
20:53 9.5 °C 5.9 °C 1027 hPa NW 2.6 km/h 3.5 km/h 78 % 0 mm
20:54 9.1 °C 5.7 °C 1027.3 hPa Calm   2.6 km/h 79 % 0 mm
20:55 9.1 °C 5.7 °C 1027.3 hPa Calm   2.6 km/h 79 % 0 mm
20:56 9.1 °C 5.7 °C 1027.3 hPa Calm   2.6 km/h 79 % 0 mm
20:57 9.1 °C 5.7 °C 1027.3 hPa Calm   2.6 km/h 79 % 0 mm
20:58 9.3 °C 5.7 °C 1027.3 hPa NW 1.1 km/h 3.5 km/h 78 % 0 mm
21:03 9.3 °C 5.8 °C 1027.3 hPa WNW 1.1 km/h 3.5 km/h 79 % 0 mm
21:08 9.1 °C 5.7 °C 1027.3 hPa Calm   2.6 km/h 79 % 0 mm
21:13 9.1 °C 5.7 °C 1027.3 hPa Calm   2.6 km/h 79 % 0 mm
21:18 9.2 °C 5.9 °C 1027.3 hPa Calm   2.6 km/h 80 % 0 mm
21:23 9.2 °C 5.9 °C 1027.3 hPa NW 1.1 km/h 2.6 km/h 80 % 0 mm
21:28 9.2 °C 5.9 °C 1027.3 hPa Calm   2.6 km/h 80 % 0 mm
21:33 9.2 °C 5.9 °C 1027.3 hPa Calm   2.6 km/h 80 % 0 mm
21:38 9.3 °C 6.1 °C 1027.3 hPa Calm   2.6 km/h 80 % 0 mm
21:43 9.3 °C 6.1 °C 1027.3 hPa West 1.1 km/h 3.5 km/h 80 % 0 mm
21:48 9.2 °C 6.1 °C 1027.7 hPa NW 1.1 km/h 3.5 km/h 81 % 0 mm
21:53 9.1 °C 6 °C 1027.7 hPa WNW 1.1 km/h 3.5 km/h 81 % 0 mm
21:58 9 °C 5.9 °C 1027.7 hPa WNW 1.1 km/h 3.5 km/h 81 % 0 mm
22:03 9 °C 6.1 °C 1027.7 hPa Calm   2.6 km/h 82 % 0 mm
22:08 9 °C 6.1 °C 1027.7 hPa NW 1.1 km/h 3.5 km/h 82 % 0 mm
22:13 8.9 °C 6 °C 1027.7 hPa NW 1.1 km/h 3.5 km/h 82 % 0 mm
22:18 8.9 °C 6.2 °C 1027.7 hPa NW 1.1 km/h 7.2 km/h 83 % 0 mm
22:23 8.9 °C 6.2 °C 1027.7 hPa NW 2.6 km/h 7.2 km/h 83 % 0 mm
22:28 8.9 °C 6.2 °C 1027.7 hPa NW 1.1 km/h 7.2 km/h 83 % 0 mm
22:33 8.9 °C 6.4 °C 1027.7 hPa NW 2.6 km/h 7.2 km/h 84 % 0 mm
22:38 8.9 °C 6.4 °C 1027.7 hPa WNW 1.1 km/h 3.5 km/h 84 % 0 mm
22:43 8.9 °C 6.6 °C 1027.7 hPa WNW 2.6 km/h 5 km/h 85 % 0 mm
22:48 9 °C 6.6 °C 1028 hPa WNW 1.1 km/h 5 km/h 85 % 0 mm
22:53 9 °C 6.6 °C 1027.7 hPa Calm   3.5 km/h 85 % 0 mm
22:58 9 °C 6.6 °C 1027.7 hPa WNW 1.1 km/h 3.5 km/h 85 % 0 mm
23:03 8.9 °C 6.6 °C 1028 hPa WNW 1.1 km/h 3.5 km/h 85 % 0 mm
23:08 8.9 °C 6.6 °C 1027.7 hPa WNW 2.6 km/h 3.5 km/h 85 % 0 mm
23:13 8.8 °C 6.6 °C 1027.7 hPa WNW 1.1 km/h 3.5 km/h 86 % 0 mm
23:18 8.8 °C 6.6 °C 1028 hPa Calm   3.5 km/h 86 % 0 mm
23:23 8.6 °C 6.4 °C 1028 hPa Calm   2.6 km/h 86 % 0 mm
23:28 8.6 °C 6.4 °C 1028 hPa WNW 1.1 km/h 2.6 km/h 86 % 0 mm
23:33 8.5 °C 6.3 °C 1027.7 hPa Calm   3.5 km/h 86 % 0 mm
23:38 8.5 °C 6.3 °C 1027.7 hPa WNW 2.6 km/h 3.5 km/h 86 % 0 mm
23:43 8.4 °C 6.2 °C 1028 hPa NW 1.1 km/h 3.5 km/h 86 % 0 mm
23:48 8.3 °C 6.1 °C 1028 hPa NW 1.1 km/h 3.5 km/h 86 % 0 mm
23:54 8.2 °C 6.2 °C 1028 hPa WNW 1.1 km/h 2.6 km/h 87 % 0 mm
Ararat Weather
Compliments of Weather Underground - 2.75 mb
Click here to send mail.


ABOUT

Live weather data from Ararat, Victoria, Australia, 3377
Data uploaded from Cumulus every 5 minutes to Weather Underground.
This site then downloads the raw data for formatting and display.
Metric and imperial data can be displayed. Graphs and historical data available.
Includes Sun and Moon times and rain image live from BOM.

Check out Ararat Weather on Facebook, Twitter and Google +

Help support ongoing costs by checking out the ads





Follow @AraratWeather